sensor_id;sensor_type;location;lat;lon;timestamp;P1;durP1;ratioP1;P2;durP2;ratioP2
25199;SDS011;33094;48.782;9.162;2023-04-15T00:02:17;20.40;;;6.40;;
25199;SDS011;33094;48.782;9.162;2023-04-15T00:04:46;15.05;;;5.90;;
25199;SDS011;33094;48.782;9.162;2023-04-15T00:07:12;15.75;;;5.80;;
25199;SDS011;33094;48.782;9.162;2023-04-15T00:09:38;10.13;;;6.20;;
25199;SDS011;33094;48.782;9.162;2023-04-15T00:12:05;15.48;;;5.97;;
25199;SDS011;33094;48.782;9.162;2023-04-15T00:14:32;12.75;;;6.28;;
25199;SDS011;33094;48.782;9.162;2023-04-15T00:16:59;16.95;;;6.28;;
25199;SDS011;33094;48.782;9.162;2023-04-15T00:19:25;11.32;;;5.30;;
25199;SDS011;33094;48.782;9.162;2023-04-15T00:21:51;22.70;;;6.15;;
25199;SDS011;33094;48.782;9.162;2023-04-15T00:24:16;17.60;;;6.47;;
25199;SDS011;33094;48.782;9.162;2023-04-15T00:26:42;14.68;;;6.70;;
25199;SDS011;33094;48.782;9.162;2023-04-15T00:29:08;11.45;;;6.05;;
25199;SDS011;33094;48.782;9.162;2023-04-15T00:31:33;11.10;;;5.75;;
25199;SDS011;33094;48.782;9.162;2023-04-15T00:33:59;13.02;;;5.93;;
25199;SDS011;33094;48.782;9.162;2023-04-15T00:36:24;10.85;;;5.05;;
25199;SDS011;33094;48.782;9.162;2023-04-15T00:38:50;14.40;;;5.63;;
25199;SDS011;33094;48.782;9.162;2023-04-15T00:41:16;17.02;;;5.70;;
25199;SDS011;33094;48.782;9.162;2023-04-15T00:43:43;11.98;;;5.80;;
25199;SDS011;33094;48.782;9.162;2023-04-15T00:46:09;13.32;;;6.00;;
25199;SDS011;33094;48.782;9.162;2023-04-15T00:48:38;11.40;;;5.60;;
25199;SDS011;33094;48.782;9.162;2023-04-15T00:51:04;11.52;;;5.68;;
25199;SDS011;33094;48.782;9.162;2023-04-15T00:53:31;15.57;;;5.47;;
25199;SDS011;33094;48.782;9.162;2023-04-15T00:55:57;12.85;;;5.55;;
25199;SDS011;33094;48.782;9.162;2023-04-15T00:58:23;10.65;;;6.10;;
25199;SDS011;33094;48.782;9.162;2023-04-15T01:00:49;16.83;;;5.50;;
25199;SDS011;33094;48.782;9.162;2023-04-15T01:03:18;10.48;;;4.95;;
25199;SDS011;33094;48.782;9.162;2023-04-15T01:05:44;16.00;;;5.07;;
25199;SDS011;33094;48.782;9.162;2023-04-15T01:08:10;12.13;;;5.13;;
25199;SDS011;33094;48.782;9.162;2023-04-15T01:10:36;9.57;;;5.15;;
25199;SDS011;33094;48.782;9.162;2023-04-15T01:13:02;8.10;;;5.30;;
25199;SDS011;33094;48.782;9.162;2023-04-15T01:15:28;9.70;;;5.65;;
25199;SDS011;33094;48.782;9.162;2023-04-15T01:17:54;8.82;;;5.25;;
25199;SDS011;33094;48.782;9.162;2023-04-15T01:20:23;12.43;;;5.35;;
25199;SDS011;33094;48.782;9.162;2023-04-15T01:22:50;8.97;;;5.10;;
25199;SDS011;33094;48.782;9.162;2023-04-15T01:25:17;12.70;;;4.88;;
25199;SDS011;33094;48.782;9.162;2023-04-15T01:27:44;10.68;;;5.47;;
25199;SDS011;33094;48.782;9.162;2023-04-15T01:30:09;18.40;;;4.90;;
25199;SDS011;33094;48.782;9.162;2023-04-15T01:32:35;18.40;;;5.18;;
25199;SDS011;33094;48.782;9.162;2023-04-15T01:35:01;10.13;;;5.37;;
25199;SDS011;33094;48.782;9.162;2023-04-15T01:37:27;12.43;;;5.65;;
25199;SDS011;33094;48.782;9.162;2023-04-15T01:39:53;12.23;;;5.35;;
25199;SDS011;33094;48.782;9.162;2023-04-15T01:42:20;9.07;;;5.20;;
25199;SDS011;33094;48.782;9.162;2023-04-15T01:44:46;12.75;;;5.18;;
25199;SDS011;33094;48.782;9.162;2023-04-15T01:47:12;16.77;;;5.45;;
25199;SDS011;33094;48.782;9.162;2023-04-15T01:49:38;13.30;;;5.50;;
25199;SDS011;33094;48.782;9.162;2023-04-15T01:52:03;10.77;;;5.00;;
25199;SDS011;33094;48.782;9.162;2023-04-15T01:54:29;18.05;;;6.55;;
25199;SDS011;33094;48.782;9.162;2023-04-15T01:56:55;14.95;;;5.07;;
25199;SDS011;33094;48.782;9.162;2023-04-15T01:59:21;13.98;;;5.05;;
25199;SDS011;33094;48.782;9.162;2023-04-15T02:01:47;10.23;;;5.40;;
25199;SDS011;33094;48.782;9.162;2023-04-15T02:04:13;11.90;;;5.38;;
25199;SDS011;33094;48.782;9.162;2023-04-15T02:06:41;15.45;;;5.95;;
25199;SDS011;33094;48.782;9.162;2023-04-15T02:09:08;8.43;;;4.93;;
25199;SDS011;33094;48.782;9.162;2023-04-15T02:11:34;17.27;;;5.20;;
25199;SDS011;33094;48.782;9.162;2023-04-15T02:16:28;14.30;;;5.63;;
25199;SDS011;33094;48.782;9.162;2023-04-15T02:18:54;14.55;;;6.38;;
25199;SDS011;33094;48.782;9.162;2023-04-15T02:21:20;16.73;;;6.50;;
25199;SDS011;33094;48.782;9.162;2023-04-15T02:23:46;15.27;;;6.22;;
25199;SDS011;33094;48.782;9.162;2023-04-15T02:26:12;18.92;;;5.75;;
25199;SDS011;33094;48.782;9.162;2023-04-15T02:28:38;17.90;;;6.22;;
25199;SDS011;33094;48.782;9.162;2023-04-15T02:31:04;10.98;;;5.00;;
25199;SDS011;33094;48.782;9.162;2023-04-15T02:33:30;14.10;;;5.13;;
25199;SDS011;33094;48.782;9.162;2023-04-15T02:35:56;9.40;;;4.72;;
25199;SDS011;33094;48.782;9.162;2023-04-15T02:38:23;12.13;;;5.38;;
25199;SDS011;33094;48.782;9.162;2023-04-15T02:40:49;15.25;;;5.70;;
25199;SDS011;33094;48.782;9.162;2023-04-15T02:43:15;11.13;;;4.80;;
25199;SDS011;33094;48.782;9.162;2023-04-15T02:45:41;10.80;;;4.90;;
25199;SDS011;33094;48.782;9.162;2023-04-15T02:48:08;15.00;;;5.47;;
25199;SDS011;33094;48.782;9.162;2023-04-15T02:50:33;12.48;;;5.57;;
25199;SDS011;33094;48.782;9.162;2023-04-15T02:52:59;15.02;;;6.00;;
25199;SDS011;33094;48.782;9.162;2023-04-15T02:55:26;12.35;;;5.50;;
25199;SDS011;33094;48.782;9.162;2023-04-15T02:57:52;9.90;;;4.93;;
25199;SDS011;33094;48.782;9.162;2023-04-15T03:00:18;11.38;;;5.53;;
25199;SDS011;33094;48.782;9.162;2023-04-15T03:02:44;14.43;;;5.33;;
25199;SDS011;33094;48.782;9.162;2023-04-15T03:05:11;10.10;;;4.97;;
25199;SDS011;33094;48.782;9.162;2023-04-15T03:12:31;11.48;;;4.40;;
25199;SDS011;33094;48.782;9.162;2023-04-15T03:14:56;13.85;;;4.80;;
25199;SDS011;33094;48.782;9.162;2023-04-15T03:17:22;10.63;;;4.40;;
25199;SDS011;33094;48.782;9.162;2023-04-15T03:19:48;7.97;;;4.50;;
25199;SDS011;33094;48.782;9.162;2023-04-15T03:22:13;15.13;;;4.40;;
25199;SDS011;33094;48.782;9.162;2023-04-15T03:24:39;11.77;;;5.40;;
25199;SDS011;33094;48.782;9.162;2023-04-15T03:27:04;8.45;;;5.68;;
25199;SDS011;33094;48.782;9.162;2023-04-15T03:29:32;17.33;;;6.07;;
25199;SDS011;33094;48.782;9.162;2023-04-15T03:31:57;15.98;;;6.40;;
25199;SDS011;33094;48.782;9.162;2023-04-15T03:34:23;10.77;;;6.65;;
25199;SDS011;33094;48.782;9.162;2023-04-15T03:36:49;15.50;;;5.65;;
25199;SDS011;33094;48.782;9.162;2023-04-15T03:39:14;15.25;;;6.65;;
25199;SDS011;33094;48.782;9.162;2023-04-15T03:41:40;17.15;;;6.70;;
25199;SDS011;33094;48.782;9.162;2023-04-15T03:44:06;15.65;;;7.25;;
25199;SDS011;33094;48.782;9.162;2023-04-15T03:46:31;17.65;;;7.28;;
25199;SDS011;33094;48.782;9.162;2023-04-15T03:48:57;15.05;;;7.32;;
25199;SDS011;33094;48.782;9.162;2023-04-15T03:51:23;11.43;;;6.38;;
25199;SDS011;33094;48.782;9.162;2023-04-15T03:53:48;16.73;;;6.45;;
25199;SDS011;33094;48.782;9.162;2023-04-15T03:56:14;9.50;;;6.05;;
25199;SDS011;33094;48.782;9.162;2023-04-15T03:58:40;17.65;;;7.85;;
25199;SDS011;33094;48.782;9.162;2023-04-15T04:01:05;17.85;;;7.35;;
25199;SDS011;33094;48.782;9.162;2023-04-15T04:03:31;15.38;;;7.72;;
25199;SDS011;33094;48.782;9.162;2023-04-15T04:05:57;10.25;;;6.97;;
25199;SDS011;33094;48.782;9.162;2023-04-15T04:08:23;16.33;;;8.23;;
25199;SDS011;33094;48.782;9.162;2023-04-15T04:10:48;17.00;;;7.60;;
25199;SDS011;33094;48.782;9.162;2023-04-15T04:13:14;18.23;;;6.85;;
25199;SDS011;33094;48.782;9.162;2023-04-15T04:15:40;14.10;;;7.57;;
25199;SDS011;33094;48.782;9.162;2023-04-15T04:18:06;18.27;;;7.35;;
25199;SDS011;33094;48.782;9.162;2023-04-15T04:20:32;20.63;;;8.60;;
25199;SDS011;33094;48.782;9.162;2023-04-15T04:22:57;22.23;;;8.65;;
25199;SDS011;33094;48.782;9.162;2023-04-15T04:25:23;15.65;;;7.55;;
25199;SDS011;33094;48.782;9.162;2023-04-15T04:27:49;16.83;;;8.40;;
25199;SDS011;33094;48.782;9.162;2023-04-15T04:30:15;17.58;;;7.78;;
25199;SDS011;33094;48.782;9.162;2023-04-15T04:32:41;15.25;;;7.97;;
25199;SDS011;33094;48.782;9.162;2023-04-15T04:35:07;22.83;;;9.20;;
25199;SDS011;33094;48.782;9.162;2023-04-15T04:37:33;24.42;;;8.30;;
25199;SDS011;33094;48.782;9.162;2023-04-15T04:39:58;13.95;;;7.88;;
25199;SDS011;33094;48.782;9.162;2023-04-15T04:42:24;17.95;;;9.32;;
25199;SDS011;33094;48.782;9.162;2023-04-15T04:44:50;18.67;;;8.65;;
25199;SDS011;33094;48.782;9.162;2023-04-15T04:47:15;21.33;;;8.88;;
25199;SDS011;33094;48.782;9.162;2023-04-15T04:49:41;17.40;;;8.20;;
25199;SDS011;33094;48.782;9.162;2023-04-15T04:52:06;14.48;;;7.78;;
25199;SDS011;33094;48.782;9.162;2023-04-15T04:54:32;16.60;;;7.90;;
25199;SDS011;33094;48.782;9.162;2023-04-15T04:56:58;15.32;;;8.20;;
25199;SDS011;33094;48.782;9.162;2023-04-15T04:59:24;21.13;;;7.68;;
25199;SDS011;33094;48.782;9.162;2023-04-15T05:01:49;22.35;;;9.02;;
25199;SDS011;33094;48.782;9.162;2023-04-15T05:04:15;13.30;;;7.97;;
25199;SDS011;33094;48.782;9.162;2023-04-15T05:06:41;16.63;;;8.68;;
25199;SDS011;33094;48.782;9.162;2023-04-15T05:09:07;18.20;;;8.10;;
25199;SDS011;33094;48.782;9.162;2023-04-15T05:11:32;23.35;;;8.27;;
25199;SDS011;33094;48.782;9.162;2023-04-15T05:13:58;14.18;;;8.88;;
25199;SDS011;33094;48.782;9.162;2023-04-15T05:16:26;15.38;;;8.80;;
25199;SDS011;33094;48.782;9.162;2023-04-15T05:18:51;27.38;;;8.63;;
25199;SDS011;33094;48.782;9.162;2023-04-15T05:21:17;17.10;;;8.80;;
25199;SDS011;33094;48.782;9.162;2023-04-15T05:23:43;13.70;;;7.00;;
25199;SDS011;33094;48.782;9.162;2023-04-15T05:26:09;19.85;;;7.75;;
25199;SDS011;33094;48.782;9.162;2023-04-15T05:28:35;18.20;;;5.22;;
25199;SDS011;33094;48.782;9.162;2023-04-15T05:31:01;13.93;;;4.82;;
25199;SDS011;33094;48.782;9.162;2023-04-15T05:33:27;9.55;;;4.57;;
25199;SDS011;33094;48.782;9.162;2023-04-15T05:35:52;15.52;;;5.10;;
25199;SDS011;33094;48.782;9.162;2023-04-15T05:38:18;13.35;;;4.68;;
25199;SDS011;33094;48.782;9.162;2023-04-15T05:40:43;7.88;;;4.55;;
25199;SDS011;33094;48.782;9.162;2023-04-15T05:43:09;9.68;;;4.50;;
25199;SDS011;33094;48.782;9.162;2023-04-15T05:45:35;11.95;;;5.05;;
25199;SDS011;33094;48.782;9.162;2023-04-15T05:48:01;13.27;;;5.25;;
25199;SDS011;33094;48.782;9.162;2023-04-15T05:50:26;11.15;;;5.03;;
25199;SDS011;33094;48.782;9.162;2023-04-15T05:52:52;17.85;;;6.68;;
25199;SDS011;33094;48.782;9.162;2023-04-15T05:55:18;17.80;;;6.05;;
25199;SDS011;33094;48.782;9.162;2023-04-15T09:04:05;6.93;;;4.55;;
25199;SDS011;33094;48.782;9.162;2023-04-15T11:19:35;7.65;;;3.55;;
25199;SDS011;33094;48.782;9.162;2023-04-15T11:24:48;6.53;;;3.70;;
25199;SDS011;33094;48.782;9.162;2023-04-15T11:37:52;5.93;;;3.10;;
25199;SDS011;33094;48.782;9.162;2023-04-15T11:58:29;8.60;;;4.18;;
25199;SDS011;33094;48.782;9.162;2023-04-15T12:00:58;10.55;;;3.70;;
25199;SDS011;33094;48.782;9.162;2023-04-15T12:03:25;7.63;;;3.45;;
25199;SDS011;33094;48.782;9.162;2023-04-15T12:06:06;5.15;;;3.33;;
25199;SDS011;33094;48.782;9.162;2023-04-15T12:13:55;11.57;;;4.35;;
25199;SDS011;33094;48.782;9.162;2023-04-15T12:16:37;8.73;;;4.47;;
25199;SDS011;33094;48.782;9.162;2023-04-15T12:19:06;9.63;;;4.60;;
25199;SDS011;33094;48.782;9.162;2023-04-15T12:21:40;10.07;;;4.20;;
25199;SDS011;33094;48.782;9.162;2023-04-15T12:24:09;8.30;;;4.43;;
25199;SDS011;33094;48.782;9.162;2023-04-15T12:26:47;6.57;;;3.80;;
25199;SDS011;33094;48.782;9.162;2023-04-15T12:29:24;9.88;;;4.28;;
25199;SDS011;33094;48.782;9.162;2023-04-15T12:31:53;14.45;;;4.30;;
25199;SDS011;33094;48.782;9.162;2023-04-15T12:34:27;9.65;;;4.10;;
25199;SDS011;33094;48.782;9.162;2023-04-15T12:36:54;6.53;;;4.05;;
25199;SDS011;33094;48.782;9.162;2023-04-15T12:39:23;9.85;;;4.75;;
25199;SDS011;33094;48.782;9.162;2023-04-15T12:41:50;11.15;;;4.88;;
25199;SDS011;33094;48.782;9.162;2023-04-15T12:44:22;7.65;;;5.45;;
25199;SDS011;33094;48.782;9.162;2023-04-15T12:46:48;8.27;;;5.10;;
25199;SDS011;33094;48.782;9.162;2023-04-15T12:49:15;13.15;;;5.57;;
25199;SDS011;33094;48.782;9.162;2023-04-15T12:51:43;7.15;;;5.35;;
25199;SDS011;33094;48.782;9.162;2023-04-15T12:54:09;7.20;;;4.82;;
25199;SDS011;33094;48.782;9.162;2023-04-15T12:56:35;6.93;;;4.95;;
25199;SDS011;33094;48.782;9.162;2023-04-15T12:59:01;6.22;;;4.30;;
25199;SDS011;33094;48.782;9.162;2023-04-15T13:01:26;6.10;;;4.55;;
25199;SDS011;33094;48.782;9.162;2023-04-15T13:03:52;7.18;;;4.65;;
25199;SDS011;33094;48.782;9.162;2023-04-15T13:06:18;4.07;;;3.67;;
25199;SDS011;33094;48.782;9.162;2023-04-15T13:08:43;6.68;;;4.15;;
25199;SDS011;33094;48.782;9.162;2023-04-15T13:11:09;4.35;;;3.88;;
25199;SDS011;33094;48.782;9.162;2023-04-15T13:13:35;6.45;;;3.30;;
25199;SDS011;33094;48.782;9.162;2023-04-15T13:16:01;4.43;;;3.50;;
25199;SDS011;33094;48.782;9.162;2023-04-15T13:18:26;8.32;;;4.00;;
25199;SDS011;33094;48.782;9.162;2023-04-15T13:20:53;3.88;;;3.15;;
25199;SDS011;33094;48.782;9.162;2023-04-15T13:23:20;4.75;;;3.28;;
25199;SDS011;33094;48.782;9.162;2023-04-15T13:25:45;6.13;;;3.33;;
25199;SDS011;33094;48.782;9.162;2023-04-15T13:28:11;6.65;;;3.05;;
25199;SDS011;33094;48.782;9.162;2023-04-15T13:30:37;7.75;;;3.35;;
25199;SDS011;33094;48.782;9.162;2023-04-15T13:33:03;6.55;;;3.22;;
25199;SDS011;33094;48.782;9.162;2023-04-15T13:35:31;4.20;;;3.80;;
25199;SDS011;33094;48.782;9.162;2023-04-15T13:40:22;4.53;;;3.20;;
25199;SDS011;33094;48.782;9.162;2023-04-15T13:42:48;5.00;;;3.17;;
25199;SDS011;33094;48.782;9.162;2023-04-15T13:45:13;6.40;;;2.70;;
25199;SDS011;33094;48.782;9.162;2023-04-15T13:47:40;4.07;;;1.80;;
25199;SDS011;33094;48.782;9.162;2023-04-15T13:50:06;3.08;;;1.80;;
25199;SDS011;33094;48.782;9.162;2023-04-15T13:52:32;2.38;;;1.58;;
25199;SDS011;33094;48.782;9.162;2023-04-15T13:54:57;5.75;;;1.83;;
25199;SDS011;33094;48.782;9.162;2023-04-15T13:57:23;2.22;;;1.63;;
25199;SDS011;33094;48.782;9.162;2023-04-15T13:59:49;3.35;;;1.90;;
25199;SDS011;33094;48.782;9.162;2023-04-15T14:02:15;3.75;;;1.70;;
25199;SDS011;33094;48.782;9.162;2023-04-15T14:04:40;6.00;;;3.90;;
25199;SDS011;33094;48.782;9.162;2023-04-15T14:07:06;4.63;;;2.50;;
25199;SDS011;33094;48.782;9.162;2023-04-15T14:09:32;6.55;;;2.40;;
25199;SDS011;33094;48.782;9.162;2023-04-15T14:11:58;3.53;;;1.85;;
25199;SDS011;33094;48.782;9.162;2023-04-15T14:14:25;2.10;;;1.70;;
25199;SDS011;33094;48.782;9.162;2023-04-15T14:16:51;3.17;;;1.50;;
25199;SDS011;33094;48.782;9.162;2023-04-15T14:19:16;1.60;;;1.45;;
25199;SDS011;33094;48.782;9.162;2023-04-15T14:21:42;1.60;;;1.17;;
25199;SDS011;33094;48.782;9.162;2023-04-15T14:24:08;4.13;;;1.27;;
25199;SDS011;33094;48.782;9.162;2023-04-15T14:26:33;8.13;;;1.40;;
25199;SDS011;33094;48.782;9.162;2023-04-15T14:28:59;4.32;;;1.40;;
25199;SDS011;33094;48.782;9.162;2023-04-15T14:31:25;5.07;;;1.63;;
25199;SDS011;33094;48.782;9.162;2023-04-15T14:33:50;2.50;;;1.58;;
25199;SDS011;33094;48.782;9.162;2023-04-15T14:36:16;2.67;;;1.60;;
25199;SDS011;33094;48.782;9.162;2023-04-15T14:38:42;2.17;;;1.73;;
25199;SDS011;33094;48.782;9.162;2023-04-15T14:41:07;3.55;;;1.67;;
25199;SDS011;33094;48.782;9.162;2023-04-15T14:43:34;5.18;;;1.60;;
25199;SDS011;33094;48.782;9.162;2023-04-15T14:46:00;4.80;;;1.77;;
25199;SDS011;33094;48.782;9.162;2023-04-15T14:48:25;2.83;;;1.60;;
25199;SDS011;33094;48.782;9.162;2023-04-15T14:50:51;3.13;;;1.75;;
25199;SDS011;33094;48.782;9.162;2023-04-15T14:53:17;1.52;;;1.30;;
25199;SDS011;33094;48.782;9.162;2023-04-15T14:55:43;2.05;;;1.40;;
25199;SDS011;33094;48.782;9.162;2023-04-15T14:58:09;2.53;;;1.63;;
25199;SDS011;33094;48.782;9.162;2023-04-15T15:00:35;6.03;;;1.73;;
25199;SDS011;33094;48.782;9.162;2023-04-15T15:03:06;3.17;;;1.90;;
25199;SDS011;33094;48.782;9.162;2023-04-15T15:05:39;4.03;;;1.80;;
25199;SDS011;33094;48.782;9.162;2023-04-15T15:08:06;5.35;;;2.00;;
25199;SDS011;33094;48.782;9.162;2023-04-15T15:10:33;2.78;;;1.67;;
25199;SDS011;33094;48.782;9.162;2023-04-15T15:13:00;3.95;;;2.25;;
25199;SDS011;33094;48.782;9.162;2023-04-15T15:15:30;3.17;;;2.17;;
25199;SDS011;33094;48.782;9.162;2023-04-15T15:17:55;4.57;;;2.47;;
25199;SDS011;33094;48.782;9.162;2023-04-15T15:20:21;2.88;;;1.63;;
25199;SDS011;33094;48.782;9.162;2023-04-15T15:22:47;3.70;;;1.73;;
25199;SDS011;33094;48.782;9.162;2023-04-15T15:25:13;4.47;;;2.10;;
25199;SDS011;33094;48.782;9.162;2023-04-15T15:27:38;4.07;;;2.70;;
25199;SDS011;33094;48.782;9.162;2023-04-15T15:30:04;3.50;;;2.55;;
25199;SDS011;33094;48.782;9.162;2023-04-15T15:32:30;4.25;;;2.30;;
25199;SDS011;33094;48.782;9.162;2023-04-15T15:34:56;3.50;;;2.03;;
25199;SDS011;33094;48.782;9.162;2023-04-15T15:37:22;3.40;;;2.08;;
25199;SDS011;33094;48.782;9.162;2023-04-15T15:39:47;4.53;;;1.88;;
25199;SDS011;33094;48.782;9.162;2023-04-15T15:42:14;3.78;;;2.40;;
25199;SDS011;33094;48.782;9.162;2023-04-15T15:44:40;3.50;;;2.17;;
25199;SDS011;33094;48.782;9.162;2023-04-15T15:47:06;3.15;;;2.50;;
25199;SDS011;33094;48.782;9.162;2023-04-15T15:49:32;3.08;;;2.50;;
25199;SDS011;33094;48.782;9.162;2023-04-15T15:51:58;4.38;;;2.38;;
25199;SDS011;33094;48.782;9.162;2023-04-15T15:54:24;7.63;;;2.28;;
25199;SDS011;33094;48.782;9.162;2023-04-15T15:56:49;3.90;;;2.58;;
25199;SDS011;33094;48.782;9.162;2023-04-15T15:59:15;3.13;;;2.20;;
25199;SDS011;33094;48.782;9.162;2023-04-15T16:01:41;6.07;;;2.92;;
25199;SDS011;33094;48.782;9.162;2023-04-15T16:06:34;6.80;;;2.30;;
25199;SDS011;33094;48.782;9.162;2023-04-15T16:09:00;4.10;;;2.50;;
25199;SDS011;33094;48.782;9.162;2023-04-15T16:11:25;3.92;;;2.50;;
25199;SDS011;33094;48.782;9.162;2023-04-15T16:13:51;4.40;;;2.50;;
25199;SDS011;33094;48.782;9.162;2023-04-15T16:16:17;4.47;;;2.80;;
25199;SDS011;33094;48.782;9.162;2023-04-15T16:18:43;5.40;;;2.97;;
25199;SDS011;33094;48.782;9.162;2023-04-15T16:21:09;5.95;;;2.97;;
25199;SDS011;33094;48.782;9.162;2023-04-15T16:23:35;4.20;;;2.63;;
25199;SDS011;33094;48.782;9.162;2023-04-15T16:26:00;3.75;;;2.80;;
25199;SDS011;33094;48.782;9.162;2023-04-15T16:28:27;2.67;;;2.23;;
25199;SDS011;33094;48.782;9.162;2023-04-15T16:30:52;5.30;;;2.47;;
25199;SDS011;33094;48.782;9.162;2023-04-15T16:33:19;5.28;;;3.20;;
25199;SDS011;33094;48.782;9.162;2023-04-15T16:35:45;6.78;;;3.70;;
25199;SDS011;33094;48.782;9.162;2023-04-15T16:38:10;4.05;;;3.03;;
25199;SDS011;33094;48.782;9.162;2023-04-15T16:40:36;4.32;;;3.10;;
25199;SDS011;33094;48.782;9.162;2023-04-15T16:43:02;5.72;;;3.80;;
25199;SDS011;33094;48.782;9.162;2023-04-15T16:45:28;3.70;;;3.17;;
25199;SDS011;33094;48.782;9.162;2023-04-15T16:47:54;5.63;;;3.60;;
25199;SDS011;33094;48.782;9.162;2023-04-15T16:50:20;9.32;;;3.58;;
25199;SDS011;33094;48.782;9.162;2023-04-15T16:52:46;3.83;;;3.20;;
25199;SDS011;33094;48.782;9.162;2023-04-15T16:55:12;3.72;;;3.25;;
25199;SDS011;33094;48.782;9.162;2023-04-15T16:57:37;5.68;;;3.47;;
25199;SDS011;33094;48.782;9.162;2023-04-15T17:00:03;5.45;;;3.53;;
25199;SDS011;33094;48.782;9.162;2023-04-15T17:02:29;6.53;;;4.60;;
25199;SDS011;33094;48.782;9.162;2023-04-15T17:04:55;10.30;;;4.10;;
25199;SDS011;33094;48.782;9.162;2023-04-15T17:07:20;6.22;;;4.70;;
25199;SDS011;33094;48.782;9.162;2023-04-15T17:09:46;5.57;;;4.10;;
25199;SDS011;33094;48.782;9.162;2023-04-15T17:12:12;6.38;;;4.70;;
25199;SDS011;33094;48.782;9.162;2023-04-15T17:14:38;4.72;;;3.92;;
25199;SDS011;33094;48.782;9.162;2023-04-15T17:17:04;5.80;;;4.13;;
25199;SDS011;33094;48.782;9.162;2023-04-15T17:19:30;5.20;;;3.50;;
25199;SDS011;33094;48.782;9.162;2023-04-15T17:21:56;4.45;;;3.88;;
25199;SDS011;33094;48.782;9.162;2023-04-15T17:24:24;5.97;;;4.38;;
25199;SDS011;33094;48.782;9.162;2023-04-15T17:26:51;6.03;;;4.25;;
25199;SDS011;33094;48.782;9.162;2023-04-15T17:29:18;6.65;;;4.53;;
25199;SDS011;33094;48.782;9.162;2023-04-15T17:31:43;5.13;;;4.28;;
25199;SDS011;33094;48.782;9.162;2023-04-15T17:34:09;7.00;;;4.63;;
25199;SDS011;33094;48.782;9.162;2023-04-15T17:36:35;6.88;;;3.97;;
25199;SDS011;33094;48.782;9.162;2023-04-15T17:39:00;7.07;;;4.15;;
25199;SDS011;33094;48.782;9.162;2023-04-15T17:41:26;5.30;;;4.25;;
25199;SDS011;33094;48.782;9.162;2023-04-15T17:43:51;7.95;;;4.43;;
25199;SDS011;33094;48.782;9.162;2023-04-15T17:46:17;7.50;;;4.55;;
25199;SDS011;33094;48.782;9.162;2023-04-15T17:48:43;6.25;;;4.15;;
25199;SDS011;33094;48.782;9.162;2023-04-15T17:51:10;6.57;;;4.13;;
25199;SDS011;33094;48.782;9.162;2023-04-15T17:53:36;4.60;;;3.90;;
25199;SDS011;33094;48.782;9.162;2023-04-15T17:56:02;4.40;;;3.55;;
25199;SDS011;33094;48.782;9.162;2023-04-15T17:58:28;4.40;;;3.75;;
25199;SDS011;33094;48.782;9.162;2023-04-15T18:00:54;4.88;;;3.90;;
25199;SDS011;33094;48.782;9.162;2023-04-15T18:03:19;5.18;;;3.78;;
25199;SDS011;33094;48.782;9.162;2023-04-15T18:05:45;3.75;;;3.35;;
25199;SDS011;33094;48.782;9.162;2023-04-15T18:08:11;3.85;;;2.92;;
25199;SDS011;33094;48.782;9.162;2023-04-15T18:10:37;4.43;;;2.83;;
25199;SDS011;33094;48.782;9.162;2023-04-15T18:13:03;6.90;;;3.05;;
25199;SDS011;33094;48.782;9.162;2023-04-15T18:15:29;6.15;;;3.08;;
25199;SDS011;33094;48.782;9.162;2023-04-15T18:17:55;4.17;;;3.20;;
25199;SDS011;33094;48.782;9.162;2023-04-15T18:20:21;6.00;;;2.90;;
25199;SDS011;33094;48.782;9.162;2023-04-15T18:22:47;3.20;;;2.90;;
25199;SDS011;33094;48.782;9.162;2023-04-15T18:25:13;5.32;;;3.50;;
25199;SDS011;33094;48.782;9.162;2023-04-15T18:27:38;4.18;;;3.78;;
25199;SDS011;33094;48.782;9.162;2023-04-15T18:30:07;6.72;;;3.95;;
25199;SDS011;33094;48.782;9.162;2023-04-15T18:32:34;4.50;;;3.90;;
25199;SDS011;33094;48.782;9.162;2023-04-15T18:35:00;4.53;;;4.03;;
25199;SDS011;33094;48.782;9.162;2023-04-15T18:37:26;6.07;;;4.13;;
25199;SDS011;33094;48.782;9.162;2023-04-15T18:39:53;5.53;;;5.03;;
25199;SDS011;33094;48.782;9.162;2023-04-15T18:42:19;6.37;;;4.67;;
25199;SDS011;33094;48.782;9.162;2023-04-15T18:44:46;6.88;;;4.63;;
25199;SDS011;33094;48.782;9.162;2023-04-15T18:47:12;5.50;;;4.05;;
25199;SDS011;33094;48.782;9.162;2023-04-15T18:49:38;5.38;;;3.95;;
25199;SDS011;33094;48.782;9.162;2023-04-15T18:52:04;4.38;;;3.67;;
25199;SDS011;33094;48.782;9.162;2023-04-15T18:54:30;5.00;;;4.50;;
25199;SDS011;33094;48.782;9.162;2023-04-15T18:56:56;4.60;;;4.10;;
25199;SDS011;33094;48.782;9.162;2023-04-15T18:59:22;6.03;;;4.30;;
25199;SDS011;33094;48.782;9.162;2023-04-15T19:01:48;5.22;;;4.72;;
25199;SDS011;33094;48.782;9.162;2023-04-15T19:04:13;6.55;;;4.75;;
25199;SDS011;33094;48.782;9.162;2023-04-15T19:06:39;5.75;;;5.15;;
25199;SDS011;33094;48.782;9.162;2023-04-15T19:09:04;5.97;;;5.38;;
25199;SDS011;33094;48.782;9.162;2023-04-15T19:11:30;9.30;;;5.70;;
25199;SDS011;33094;48.782;9.162;2023-04-15T19:13:56;6.18;;;5.25;;
25199;SDS011;33094;48.782;9.162;2023-04-15T19:16:21;8.02;;;6.10;;
25199;SDS011;33094;48.782;9.162;2023-04-15T19:18:47;7.65;;;6.10;;
25199;SDS011;33094;48.782;9.162;2023-04-15T19:21:12;8.98;;;6.45;;
25199;SDS011;33094;48.782;9.162;2023-04-15T19:23:40;7.95;;;6.78;;
25199;SDS011;33094;48.782;9.162;2023-04-15T19:26:07;8.65;;;7.10;;
25199;SDS011;33094;48.782;9.162;2023-04-15T19:28:32;8.77;;;7.47;;
25199;SDS011;33094;48.782;9.162;2023-04-15T19:30:58;11.45;;;8.65;;
25199;SDS011;33094;48.782;9.162;2023-04-15T19:33:24;11.38;;;8.55;;
25199;SDS011;33094;48.782;9.162;2023-04-15T19:35:55;9.45;;;8.48;;
25199;SDS011;33094;48.782;9.162;2023-04-15T19:38:28;13.38;;;10.38;;
25199;SDS011;33094;48.782;9.162;2023-04-15T19:40:54;13.48;;;10.63;;
25199;SDS011;33094;48.782;9.162;2023-04-15T19:43:20;13.45;;;10.65;;
25199;SDS011;33094;48.782;9.162;2023-04-15T19:45:46;15.23;;;11.25;;
25199;SDS011;33094;48.782;9.162;2023-04-15T19:48:16;15.85;;;12.20;;
25199;SDS011;33094;48.782;9.162;2023-04-15T19:50:42;15.17;;;10.80;;
25199;SDS011;33094;48.782;9.162;2023-04-15T19:53:07;12.60;;;10.23;;
25199;SDS011;33094;48.782;9.162;2023-04-15T19:55:33;15.52;;;11.27;;
25199;SDS011;33094;48.782;9.162;2023-04-15T19:57:59;16.17;;;11.75;;
25199;SDS011;33094;48.782;9.162;2023-04-15T20:00:25;16.20;;;11.95;;
25199;SDS011;33094;48.782;9.162;2023-04-15T20:02:51;14.60;;;11.20;;
25199;SDS011;33094;48.782;9.162;2023-04-15T20:05:17;14.80;;;11.68;;
25199;SDS011;33094;48.782;9.162;2023-04-15T20:07:42;16.67;;;12.77;;
25199;SDS011;33094;48.782;9.162;2023-04-15T20:10:11;13.75;;;11.00;;
25199;SDS011;33094;48.782;9.162;2023-04-15T20:12:39;13.30;;;10.43;;
25199;SDS011;33094;48.782;9.162;2023-04-15T20:15:06;16.98;;;12.23;;
25199;SDS011;33094;48.782;9.162;2023-04-15T20:17:32;17.10;;;13.23;;
25199;SDS011;33094;48.782;9.162;2023-04-15T20:19:59;16.58;;;11.77;;
25199;SDS011;33094;48.782;9.162;2023-04-15T20:22:25;16.75;;;12.07;;
25199;SDS011;33094;48.782;9.162;2023-04-15T20:24:51;16.75;;;11.95;;
25199;SDS011;33094;48.782;9.162;2023-04-15T20:27:16;16.52;;;12.30;;
25199;SDS011;33094;48.782;9.162;2023-04-15T20:29:44;16.05;;;12.15;;
25199;SDS011;33094;48.782;9.162;2023-04-15T20:32:10;15.98;;;11.90;;
25199;SDS011;33094;48.782;9.162;2023-04-15T20:34:36;12.17;;;9.27;;
25199;SDS011;33094;48.782;9.162;2023-04-15T20:37:04;18.23;;;13.48;;
25199;SDS011;33094;48.782;9.162;2023-04-15T20:39:30;15.35;;;12.10;;
25199;SDS011;33094;48.782;9.162;2023-04-15T20:41:56;16.08;;;13.00;;
25199;SDS011;33094;48.782;9.162;2023-04-15T20:44:21;18.60;;;13.18;;